sensor_id;sensor_type;location;lat;lon;timestamp;P1;durP1;ratioP1;P2;durP2;ratioP2
49392;SDS011;35268;42.642;23.308;2023-04-24T00:02:03;15.43;;;7.60;;
49392;SDS011;35268;42.642;23.308;2023-04-24T00:05:07;11.75;;;6.93;;
49392;SDS011;35268;42.642;23.308;2023-04-24T00:08:02;14.70;;;7.35;;
49392;SDS011;35268;42.642;23.308;2023-04-24T00:10:27;16.05;;;7.65;;
49392;SDS011;35268;42.642;23.308;2023-04-24T00:12:53;14.38;;;7.18;;
49392;SDS011;35268;42.642;23.308;2023-04-24T00:15:18;12.75;;;7.25;;
49392;SDS011;35268;42.642;23.308;2023-04-24T00:17:44;23.77;;;7.95;;
49392;SDS011;35268;42.642;23.308;2023-04-24T00:20:09;16.45;;;6.80;;
49392;SDS011;35268;42.642;23.308;2023-04-24T00:22:35;23.35;;;7.13;;
49392;SDS011;35268;42.642;23.308;2023-04-24T00:25:01;14.70;;;7.50;;
49392;SDS011;35268;42.642;23.308;2023-04-24T00:27:27;13.02;;;7.78;;
49392;SDS011;35268;42.642;23.308;2023-04-24T00:29:54;9.88;;;6.45;;
49392;SDS011;35268;42.642;23.308;2023-04-24T00:32:20;11.32;;;6.10;;
49392;SDS011;35268;42.642;23.308;2023-04-24T00:34:45;15.88;;;7.60;;
49392;SDS011;35268;42.642;23.308;2023-04-24T00:37:11;12.23;;;6.75;;
49392;SDS011;35268;42.642;23.308;2023-04-24T00:39:37;13.25;;;6.32;;
49392;SDS011;35268;42.642;23.308;2023-04-24T00:42:02;12.65;;;6.78;;
49392;SDS011;35268;42.642;23.308;2023-04-24T00:44:28;16.95;;;6.82;;
49392;SDS011;35268;42.642;23.308;2023-04-24T00:46:53;13.85;;;7.25;;
49392;SDS011;35268;42.642;23.308;2023-04-24T00:49:20;15.60;;;6.30;;
49392;SDS011;35268;42.642;23.308;2023-04-24T00:51:46;12.30;;;6.70;;
49392;SDS011;35268;42.642;23.308;2023-04-24T00:54:12;13.48;;;6.07;;
49392;SDS011;35268;42.642;23.308;2023-04-24T00:56:38;8.77;;;5.28;;
49392;SDS011;35268;42.642;23.308;2023-04-24T00:59:05;13.00;;;5.70;;
49392;SDS011;35268;42.642;23.308;2023-04-24T01:01:31;14.45;;;5.85;;
49392;SDS011;35268;42.642;23.308;2023-04-24T01:03:57;15.90;;;6.60;;
49392;SDS011;35268;42.642;23.308;2023-04-24T01:06:24;10.85;;;5.97;;
49392;SDS011;35268;42.642;23.308;2023-04-24T01:08:53;13.88;;;6.13;;
49392;SDS011;35268;42.642;23.308;2023-04-24T01:11:20;18.08;;;6.90;;
49392;SDS011;35268;42.642;23.308;2023-04-24T01:13:46;13.73;;;6.53;;
49392;SDS011;35268;42.642;23.308;2023-04-24T01:16:13;11.25;;;6.65;;
49392;SDS011;35268;42.642;23.308;2023-04-24T01:18:42;13.98;;;7.25;;
49392;SDS011;35268;42.642;23.308;2023-04-24T01:21:08;16.88;;;7.35;;
49392;SDS011;35268;42.642;23.308;2023-04-24T01:23:36;12.20;;;7.30;;
49392;SDS011;35268;42.642;23.308;2023-04-24T01:26:01;13.15;;;7.55;;
49392;SDS011;35268;42.642;23.308;2023-04-24T01:28:30;13.25;;;7.78;;
49392;SDS011;35268;42.642;23.308;2023-04-24T01:30:55;15.75;;;8.43;;
49392;SDS011;35268;42.642;23.308;2023-04-24T01:33:21;17.85;;;8.27;;
49392;SDS011;35268;42.642;23.308;2023-04-24T01:35:48;19.27;;;7.68;;
49392;SDS011;35268;42.642;23.308;2023-04-24T01:38:13;16.35;;;10.60;;
49392;SDS011;35268;42.642;23.308;2023-04-24T01:40:39;13.48;;;7.57;;
49392;SDS011;35268;42.642;23.308;2023-04-24T01:43:05;15.63;;;7.97;;
49392;SDS011;35268;42.642;23.308;2023-04-24T01:45:30;14.30;;;8.77;;
49392;SDS011;35268;42.642;23.308;2023-04-24T01:47:56;13.85;;;8.45;;
49392;SDS011;35268;42.642;23.308;2023-04-24T01:50:22;15.32;;;8.35;;
49392;SDS011;35268;42.642;23.308;2023-04-24T01:52:47;13.60;;;7.70;;
49392;SDS011;35268;42.642;23.308;2023-04-24T01:55:13;15.68;;;8.65;;
49392;SDS011;35268;42.642;23.308;2023-04-24T01:57:38;12.93;;;7.93;;
49392;SDS011;35268;42.642;23.308;2023-04-24T02:00:05;13.02;;;8.00;;
49392;SDS011;35268;42.642;23.308;2023-04-24T02:02:32;19.52;;;8.30;;
49392;SDS011;35268;42.642;23.308;2023-04-24T02:04:57;22.67;;;9.05;;
49392;SDS011;35268;42.642;23.308;2023-04-24T02:07:23;14.70;;;8.10;;
49392;SDS011;35268;42.642;23.308;2023-04-24T02:09:48;14.65;;;7.72;;
49392;SDS011;35268;42.642;23.308;2023-04-24T02:12:17;18.73;;;9.23;;
49392;SDS011;35268;42.642;23.308;2023-04-24T02:14:42;16.27;;;9.27;;
49392;SDS011;35268;42.642;23.308;2023-04-24T02:17:09;16.20;;;8.25;;
49392;SDS011;35268;42.642;23.308;2023-04-24T02:19:34;12.25;;;7.70;;
49392;SDS011;35268;42.642;23.308;2023-04-24T02:22:00;16.48;;;7.43;;
49392;SDS011;35268;42.642;23.308;2023-04-24T02:24:25;12.23;;;7.30;;
49392;SDS011;35268;42.642;23.308;2023-04-24T02:26:51;15.85;;;7.95;;
49392;SDS011;35268;42.642;23.308;2023-04-24T02:29:16;15.75;;;6.50;;
49392;SDS011;35268;42.642;23.308;2023-04-24T02:31:42;19.42;;;7.68;;
49392;SDS011;35268;42.642;23.308;2023-04-24T02:34:08;13.27;;;7.40;;
49392;SDS011;35268;42.642;23.308;2023-04-24T02:36:33;12.32;;;6.97;;
49392;SDS011;35268;42.642;23.308;2023-04-24T02:38:59;10.73;;;6.75;;
49392;SDS011;35268;42.642;23.308;2023-04-24T02:41:26;17.77;;;7.65;;
49392;SDS011;35268;42.642;23.308;2023-04-24T02:43:56;12.68;;;7.18;;
49392;SDS011;35268;42.642;23.308;2023-04-24T02:46:22;16.33;;;6.78;;
49392;SDS011;35268;42.642;23.308;2023-04-24T02:48:48;13.30;;;7.32;;
49392;SDS011;35268;42.642;23.308;2023-04-24T02:51:13;17.45;;;7.93;;
49392;SDS011;35268;42.642;23.308;2023-04-24T02:53:38;13.52;;;6.95;;
49392;SDS011;35268;42.642;23.308;2023-04-24T02:56:04;14.70;;;6.43;;
49392;SDS011;35268;42.642;23.308;2023-04-24T02:58:29;18.85;;;6.88;;
49392;SDS011;35268;42.642;23.308;2023-04-24T03:00:55;13.82;;;6.70;;
49392;SDS011;35268;42.642;23.308;2023-04-24T03:03:21;14.45;;;7.47;;
49392;SDS011;35268;42.642;23.308;2023-04-24T03:05:47;14.10;;;7.43;;
49392;SDS011;35268;42.642;23.308;2023-04-24T03:08:12;15.20;;;7.10;;
49392;SDS011;35268;42.642;23.308;2023-04-24T03:10:39;17.80;;;7.45;;
49392;SDS011;35268;42.642;23.308;2023-04-24T03:13:05;10.60;;;6.57;;
49392;SDS011;35268;42.642;23.308;2023-04-24T03:15:30;12.70;;;5.97;;
49392;SDS011;35268;42.642;23.308;2023-04-24T03:17:56;11.43;;;5.75;;
49392;SDS011;35268;42.642;23.308;2023-04-24T03:20:21;17.23;;;7.07;;
49392;SDS011;35268;42.642;23.308;2023-04-24T03:22:47;12.30;;;6.38;;
49392;SDS011;35268;42.642;23.308;2023-04-24T03:25:12;11.07;;;6.82;;
49392;SDS011;35268;42.642;23.308;2023-04-24T03:27:38;16.83;;;7.00;;
49392;SDS011;35268;42.642;23.308;2023-04-24T03:30:04;10.38;;;6.43;;
49392;SDS011;35268;42.642;23.308;2023-04-24T03:32:31;11.82;;;6.40;;
49392;SDS011;35268;42.642;23.308;2023-04-24T03:34:57;11.90;;;6.28;;
49392;SDS011;35268;42.642;23.308;2023-04-24T03:37:23;15.52;;;7.78;;
49392;SDS011;35268;42.642;23.308;2023-04-24T03:39:48;11.82;;;6.32;;
49392;SDS011;35268;42.642;23.308;2023-04-24T03:42:14;13.20;;;6.45;;
49392;SDS011;35268;42.642;23.308;2023-04-24T03:44:40;16.75;;;6.68;;
49392;SDS011;35268;42.642;23.308;2023-04-24T03:47:05;13.13;;;6.63;;
49392;SDS011;35268;42.642;23.308;2023-04-24T03:49:30;17.02;;;7.00;;
49392;SDS011;35268;42.642;23.308;2023-04-24T03:51:56;11.27;;;6.90;;
49392;SDS011;35268;42.642;23.308;2023-04-24T03:54:21;12.90;;;7.32;;
49392;SDS011;35268;42.642;23.308;2023-04-24T03:56:47;19.00;;;6.43;;
49392;SDS011;35268;42.642;23.308;2023-04-24T03:59:12;11.10;;;6.07;;
49392;SDS011;35268;42.642;23.308;2023-04-24T04:01:38;15.32;;;6.45;;
49392;SDS011;35268;42.642;23.308;2023-04-24T04:04:04;8.82;;;6.10;;
49392;SDS011;35268;42.642;23.308;2023-04-24T04:06:33;9.63;;;5.95;;
49392;SDS011;35268;42.642;23.308;2023-04-24T04:08:59;15.57;;;6.85;;
49392;SDS011;35268;42.642;23.308;2023-04-24T04:11:25;13.43;;;6.20;;
49392;SDS011;35268;42.642;23.308;2023-04-24T04:13:51;12.73;;;5.72;;
49392;SDS011;35268;42.642;23.308;2023-04-24T04:16:17;14.95;;;8.02;;
49392;SDS011;35268;42.642;23.308;2023-04-24T04:18:43;12.75;;;6.15;;
49392;SDS011;35268;42.642;23.308;2023-04-24T04:21:09;12.93;;;6.18;;
49392;SDS011;35268;42.642;23.308;2023-04-24T04:23:34;12.57;;;5.97;;
49392;SDS011;35268;42.642;23.308;2023-04-24T04:26:00;10.73;;;6.20;;
49392;SDS011;35268;42.642;23.308;2023-04-24T04:28:26;17.58;;;6.05;;
49392;SDS011;35268;42.642;23.308;2023-04-24T04:30:52;17.08;;;6.70;;
49392;SDS011;35268;42.642;23.308;2023-04-24T04:33:20;11.60;;;6.25;;
49392;SDS011;35268;42.642;23.308;2023-04-24T04:35:46;11.15;;;5.95;;
49392;SDS011;35268;42.642;23.308;2023-04-24T04:38:17;14.75;;;6.10;;
49392;SDS011;35268;42.642;23.308;2023-04-24T04:40:43;10.68;;;6.05;;
49392;SDS011;35268;42.642;23.308;2023-04-24T04:43:09;19.70;;;7.13;;
49392;SDS011;35268;42.642;23.308;2023-04-24T04:45:36;25.90;;;7.38;;
49392;SDS011;35268;42.642;23.308;2023-04-24T04:48:03;18.20;;;7.90;;
49392;SDS011;35268;42.642;23.308;2023-04-24T04:50:32;18.77;;;7.40;;
49392;SDS011;35268;42.642;23.308;2023-04-24T04:52:57;19.27;;;8.70;;
49392;SDS011;35268;42.642;23.308;2023-04-24T04:55:23;22.92;;;7.63;;
49392;SDS011;35268;42.642;23.308;2023-04-24T04:57:48;18.15;;;7.20;;
49392;SDS011;35268;42.642;23.308;2023-04-24T05:00:14;15.23;;;8.75;;
49392;SDS011;35268;42.642;23.308;2023-04-24T05:02:40;18.30;;;8.25;;
49392;SDS011;35268;42.642;23.308;2023-04-24T05:05:06;15.57;;;7.30;;
49392;SDS011;35268;42.642;23.308;2023-04-24T05:07:32;15.38;;;7.03;;
49392;SDS011;35268;42.642;23.308;2023-04-24T05:09:58;18.60;;;7.78;;
49392;SDS011;35268;42.642;23.308;2023-04-24T05:12:23;24.52;;;8.30;;
49392;SDS011;35268;42.642;23.308;2023-04-24T05:14:48;16.67;;;7.13;;
49392;SDS011;35268;42.642;23.308;2023-04-24T05:17:14;17.10;;;7.32;;
49392;SDS011;35268;42.642;23.308;2023-04-24T05:19:40;12.45;;;7.28;;
49392;SDS011;35268;42.642;23.308;2023-04-24T05:22:05;18.15;;;6.97;;
49392;SDS011;35268;42.642;23.308;2023-04-24T05:24:32;15.15;;;6.53;;
49392;SDS011;35268;42.642;23.308;2023-04-24T05:26:58;18.58;;;8.93;;
49392;SDS011;35268;42.642;23.308;2023-04-24T05:29:24;20.70;;;7.07;;
49392;SDS011;35268;42.642;23.308;2023-04-24T05:31:51;19.80;;;7.85;;
49392;SDS011;35268;42.642;23.308;2023-04-24T05:34:17;23.77;;;7.82;;
49392;SDS011;35268;42.642;23.308;2023-04-24T05:36:42;15.50;;;6.78;;
49392;SDS011;35268;42.642;23.308;2023-04-24T05:39:08;21.25;;;8.10;;
49392;SDS011;35268;42.642;23.308;2023-04-24T05:41:34;19.65;;;7.43;;
49392;SDS011;35268;42.642;23.308;2023-04-24T05:43:59;17.73;;;7.57;;
49392;SDS011;35268;42.642;23.308;2023-04-24T05:46:25;19.73;;;7.30;;
49392;SDS011;35268;42.642;23.308;2023-04-24T05:48:50;14.02;;;7.18;;
49392;SDS011;35268;42.642;23.308;2023-04-24T05:51:16;17.05;;;8.30;;
49392;SDS011;35268;42.642;23.308;2023-04-24T05:53:41;10.65;;;6.75;;
49392;SDS011;35268;42.642;23.308;2023-04-24T05:56:06;21.55;;;8.15;;
49392;SDS011;35268;42.642;23.308;2023-04-24T05:58:32;19.30;;;7.22;;
49392;SDS011;35268;42.642;23.308;2023-04-24T06:00:57;13.63;;;7.38;;
49392;SDS011;35268;42.642;23.308;2023-04-24T06:03:24;25.42;;;8.00;;
49392;SDS011;35268;42.642;23.308;2023-04-24T06:05:50;18.90;;;7.40;;
49392;SDS011;35268;42.642;23.308;2023-04-24T06:08:16;20.45;;;7.93;;
49392;SDS011;35268;42.642;23.308;2023-04-24T06:10:42;15.98;;;7.53;;
49392;SDS011;35268;42.642;23.308;2023-04-24T06:13:07;22.15;;;7.90;;
49392;SDS011;35268;42.642;23.308;2023-04-24T06:15:32;17.70;;;7.80;;
49392;SDS011;35268;42.642;23.308;2023-04-24T06:17:58;17.42;;;8.25;;
49392;SDS011;35268;42.642;23.308;2023-04-24T06:20:24;13.85;;;7.45;;
49392;SDS011;35268;42.642;23.308;2023-04-24T06:22:50;12.25;;;6.38;;
49392;SDS011;35268;42.642;23.308;2023-04-24T06:25:15;19.75;;;7.68;;
49392;SDS011;35268;42.642;23.308;2023-04-24T06:27:41;23.42;;;7.47;;
49392;SDS011;35268;42.642;23.308;2023-04-24T06:30:06;14.85;;;7.35;;
49392;SDS011;35268;42.642;23.308;2023-04-24T06:32:32;19.13;;;7.55;;
49392;SDS011;35268;42.642;23.308;2023-04-24T06:34:57;19.23;;;7.32;;
49392;SDS011;35268;42.642;23.308;2023-04-24T06:37:23;20.83;;;7.05;;
49392;SDS011;35268;42.642;23.308;2023-04-24T06:39:49;15.10;;;7.22;;
49392;SDS011;35268;42.642;23.308;2023-04-24T06:42:14;10.82;;;6.43;;
49392;SDS011;35268;42.642;23.308;2023-04-24T06:44:40;19.88;;;6.20;;
49392;SDS011;35268;42.642;23.308;2023-04-24T06:47:09;15.82;;;5.88;;
49392;SDS011;35268;42.642;23.308;2023-04-24T06:49:35;13.65;;;5.95;;
49392;SDS011;35268;42.642;23.308;2023-04-24T06:52:01;34.08;;;6.55;;
49392;SDS011;35268;42.642;23.308;2023-04-24T06:54:27;10.55;;;5.70;;
49392;SDS011;35268;42.642;23.308;2023-04-24T06:56:52;14.30;;;6.07;;
49392;SDS011;35268;42.642;23.308;2023-04-24T06:59:17;13.35;;;6.15;;
49392;SDS011;35268;42.642;23.308;2023-04-24T07:01:43;17.23;;;6.90;;
49392;SDS011;35268;42.642;23.308;2023-04-24T07:04:08;15.82;;;6.05;;
49392;SDS011;35268;42.642;23.308;2023-04-24T07:06:34;14.85;;;5.68;;
49392;SDS011;35268;42.642;23.308;2023-04-24T07:09:00;8.15;;;5.45;;
49392;SDS011;35268;42.642;23.308;2023-04-24T07:11:26;12.02;;;5.28;;
49392;SDS011;35268;42.642;23.308;2023-04-24T07:13:54;11.23;;;5.25;;
49392;SDS011;35268;42.642;23.308;2023-04-24T07:16:19;12.05;;;5.95;;
49392;SDS011;35268;42.642;23.308;2023-04-24T07:18:45;22.40;;;6.90;;
49392;SDS011;35268;42.642;23.308;2023-04-24T07:21:10;13.80;;;5.70;;
49392;SDS011;35268;42.642;23.308;2023-04-24T07:23:36;11.45;;;6.35;;
49392;SDS011;35268;42.642;23.308;2023-04-24T07:26:02;10.68;;;5.50;;
49392;SDS011;35268;42.642;23.308;2023-04-24T07:28:27;13.13;;;5.60;;
49392;SDS011;35268;42.642;23.308;2023-04-24T07:30:56;14.70;;;5.50;;
49392;SDS011;35268;42.642;23.308;2023-04-24T07:33:22;21.20;;;6.47;;
49392;SDS011;35268;42.642;23.308;2023-04-24T07:35:47;7.95;;;4.43;;
49392;SDS011;35268;42.642;23.308;2023-04-24T07:38:13;10.02;;;5.00;;
49392;SDS011;35268;42.642;23.308;2023-04-24T07:40:39;10.48;;;5.85;;
49392;SDS011;35268;42.642;23.308;2023-04-24T07:43:04;12.50;;;4.40;;
49392;SDS011;35268;42.642;23.308;2023-04-24T07:45:30;8.98;;;4.38;;
49392;SDS011;35268;42.642;23.308;2023-04-24T07:47:57;10.48;;;4.72;;
49392;SDS011;35268;42.642;23.308;2023-04-24T07:50:22;17.80;;;5.30;;
49392;SDS011;35268;42.642;23.308;2023-04-24T07:52:48;15.80;;;6.03;;
49392;SDS011;35268;42.642;23.308;2023-04-24T07:55:13;12.75;;;5.95;;
49392;SDS011;35268;42.642;23.308;2023-04-24T07:57:39;18.45;;;5.80;;
49392;SDS011;35268;42.642;23.308;2023-04-24T08:00:04;15.70;;;6.22;;
49392;SDS011;35268;42.642;23.308;2023-04-24T08:02:30;18.27;;;6.50;;
49392;SDS011;35268;42.642;23.308;2023-04-24T08:04:56;14.75;;;5.32;;
49392;SDS011;35268;42.642;23.308;2023-04-24T08:07:22;23.90;;;5.20;;
49392;SDS011;35268;42.642;23.308;2023-04-24T08:09:48;10.60;;;5.85;;
49392;SDS011;35268;42.642;23.308;2023-04-24T08:12:14;12.90;;;5.78;;
49392;SDS011;35268;42.642;23.308;2023-04-24T08:14:39;13.18;;;5.80;;
49392;SDS011;35268;42.642;23.308;2023-04-24T08:17:05;8.02;;;5.00;;
49392;SDS011;35268;42.642;23.308;2023-04-24T08:19:30;19.48;;;5.45;;
49392;SDS011;35268;42.642;23.308;2023-04-24T08:21:56;13.95;;;6.00;;
49392;SDS011;35268;42.642;23.308;2023-04-24T08:24:22;11.02;;;6.07;;
49392;SDS011;35268;42.642;23.308;2023-04-24T08:26:48;13.00;;;5.60;;
49392;SDS011;35268;42.642;23.308;2023-04-24T08:29:17;7.10;;;4.90;;
49392;SDS011;35268;42.642;23.308;2023-04-24T08:31:42;13.80;;;5.82;;
49392;SDS011;35268;42.642;23.308;2023-04-24T08:34:08;18.23;;;5.95;;
49392;SDS011;35268;42.642;23.308;2023-04-24T08:36:35;13.23;;;5.63;;
49392;SDS011;35268;42.642;23.308;2023-04-24T08:39:01;15.18;;;6.07;;
49392;SDS011;35268;42.642;23.308;2023-04-24T08:41:26;9.52;;;6.30;;
49392;SDS011;35268;42.642;23.308;2023-04-24T08:43:52;17.08;;;5.82;;
49392;SDS011;35268;42.642;23.308;2023-04-24T08:46:18;12.20;;;5.60;;
49392;SDS011;35268;42.642;23.308;2023-04-24T08:48:45;13.15;;;5.63;;
49392;SDS011;35268;42.642;23.308;2023-04-24T08:51:10;10.10;;;5.90;;
49392;SDS011;35268;42.642;23.308;2023-04-24T08:53:36;13.23;;;5.40;;
49392;SDS011;35268;42.642;23.308;2023-04-24T08:56:02;20.38;;;6.75;;
49392;SDS011;35268;42.642;23.308;2023-04-24T08:58:28;11.85;;;6.25;;
49392;SDS011;35268;42.642;23.308;2023-04-24T09:00:56;13.30;;;5.80;;
49392;SDS011;35268;42.642;23.308;2023-04-24T09:03:22;16.67;;;5.30;;
49392;SDS011;35268;42.642;23.308;2023-04-24T09:05:48;15.23;;;5.28;;
49392;SDS011;35268;42.642;23.308;2023-04-24T09:08:16;10.20;;;6.15;;
49392;SDS011;35268;42.642;23.308;2023-04-24T09:10:43;12.70;;;6.13;;
49392;SDS011;35268;42.642;23.308;2023-04-24T09:13:09;14.02;;;5.25;;
49392;SDS011;35268;42.642;23.308;2023-04-24T09:15:35;15.13;;;5.35;;
49392;SDS011;35268;42.642;23.308;2023-04-24T09:18:02;22.60;;;5.38;;
49392;SDS011;35268;42.642;23.308;2023-04-24T09:20:27;14.18;;;5.40;;
49392;SDS011;35268;42.642;23.308;2023-04-24T09:22:53;13.70;;;5.72;;
49392;SDS011;35268;42.642;23.308;2023-04-24T09:25:20;11.52;;;5.30;;
49392;SDS011;35268;42.642;23.308;2023-04-24T09:27:46;18.70;;;7.13;;
49392;SDS011;35268;42.642;23.308;2023-04-24T09:30:12;7.88;;;5.13;;
49392;SDS011;35268;42.642;23.308;2023-04-24T09:32:38;13.18;;;4.90;;
49392;SDS011;35268;42.642;23.308;2023-04-24T09:35:14;13.10;;;5.28;;
49392;SDS011;35268;42.642;23.308;2023-04-24T09:37:46;12.63;;;4.35;;
49392;SDS011;35268;42.642;23.308;2023-04-24T09:40:17;7.78;;;4.30;;
49392;SDS011;35268;42.642;23.308;2023-04-24T09:42:51;14.13;;;4.85;;
49392;SDS011;35268;42.642;23.308;2023-04-24T09:45:18;14.25;;;4.65;;
49392;SDS011;35268;42.642;23.308;2023-04-24T09:47:44;13.00;;;4.35;;
49392;SDS011;35268;42.642;23.308;2023-04-24T09:50:13;16.17;;;4.60;;
49392;SDS011;35268;42.642;23.308;2023-04-24T09:52:44;16.70;;;4.70;;
49392;SDS011;35268;42.642;23.308;2023-04-24T09:55:14;13.45;;;5.05;;
49392;SDS011;35268;42.642;23.308;2023-04-24T09:57:54;19.30;;;4.63;;
49392;SDS011;35268;42.642;23.308;2023-04-24T10:00:25;13.30;;;4.75;;
49392;SDS011;35268;42.642;23.308;2023-04-24T10:03:00;12.88;;;3.92;;
49392;SDS011;35268;42.642;23.308;2023-04-24T10:05:31;11.05;;;4.10;;
49392;SDS011;35268;42.642;23.308;2023-04-24T10:08:00;17.83;;;4.40;;
49392;SDS011;35268;42.642;23.308;2023-04-24T10:10:28;9.57;;;4.38;;
49392;SDS011;35268;42.642;23.308;2023-04-24T10:12:55;9.65;;;4.15;;
49392;SDS011;35268;42.642;23.308;2023-04-24T10:15:20;12.30;;;4.10;;
49392;SDS011;35268;42.642;23.308;2023-04-24T10:17:47;11.50;;;3.97;;
49392;SDS011;35268;42.642;23.308;2023-04-24T10:20:18;15.85;;;3.83;;
49392;SDS011;35268;42.642;23.308;2023-04-24T10:22:56;14.15;;;4.25;;
49392;SDS011;35268;42.642;23.308;2023-04-24T10:25:24;12.48;;;4.03;;
49392;SDS011;35268;42.642;23.308;2023-04-24T10:27:51;9.85;;;3.85;;
49392;SDS011;35268;42.642;23.308;2023-04-24T10:30:20;11.02;;;4.03;;
49392;SDS011;35268;42.642;23.308;2023-04-24T10:32:46;18.88;;;4.13;;
49392;SDS011;35268;42.642;23.308;2023-04-24T10:35:12;13.88;;;4.10;;
49392;SDS011;35268;42.642;23.308;2023-04-24T10:37:41;16.15;;;4.30;;
49392;SDS011;35268;42.642;23.308;2023-04-24T10:40:09;6.95;;;3.38;;
49392;SDS011;35268;42.642;23.308;2023-04-24T10:42:39;18.27;;;4.00;;
49392;SDS011;35268;42.642;23.308;2023-04-24T10:45:06;14.45;;;5.25;;
49392;SDS011;35268;42.642;23.308;2023-04-24T10:47:41;5.38;;;3.65;;
49392;SDS011;35268;42.642;23.308;2023-04-24T10:50:10;8.68;;;3.53;;
49392;SDS011;35268;42.642;23.308;2023-04-24T10:52:48;9.23;;;3.33;;
49392;SDS011;35268;42.642;23.308;2023-04-24T10:55:16;6.75;;;3.40;;
49392;SDS011;35268;42.642;23.308;2023-04-24T10:58:02;12.27;;;3.60;;
49392;SDS011;35268;42.642;23.308;2023-04-24T11:00:28;8.90;;;3.40;;
49392;SDS011;35268;42.642;23.308;2023-04-24T11:02:54;9.40;;;2.58;;
49392;SDS011;35268;42.642;23.308;2023-04-24T11:05:20;7.47;;;3.15;;
49392;SDS011;35268;42.642;23.308;2023-04-24T11:10:37;9.60;;;2.70;;
49392;SDS011;35268;42.642;23.308;2023-04-24T11:13:03;5.20;;;2.55;;
49392;SDS011;35268;42.642;23.308;2023-04-24T11:15:28;5.22;;;3.10;;
49392;SDS011;35268;42.642;23.308;2023-04-24T11:17:55;5.75;;;3.10;;
49392;SDS011;35268;42.642;23.308;2023-04-24T11:20:22;6.30;;;2.60;;
49392;SDS011;35268;42.642;23.308;2023-04-24T11:22:50;5.57;;;2.92;;
49392;SDS011;35268;42.642;23.308;2023-04-24T11:25:19;6.30;;;2.83;;
49392;SDS011;35268;42.642;23.308;2023-04-24T11:27:47;6.90;;;3.75;;
49392;SDS011;35268;42.642;23.308;2023-04-24T11:30:18;4.22;;;2.75;;
49392;SDS011;35268;42.642;23.308;2023-04-24T11:32:47;4.43;;;1.88;;
49392;SDS011;35268;42.642;23.308;2023-04-24T11:35:16;3.30;;;2.13;;
49392;SDS011;35268;42.642;23.308;2023-04-24T11:37:47;4.93;;;1.80;;
49392;SDS011;35268;42.642;23.308;2023-04-24T11:40:17;4.30;;;2.13;;
49392;SDS011;35268;42.642;23.308;2023-04-24T11:42:49;5.07;;;2.20;;
49392;SDS011;35268;42.642;23.308;2023-04-24T11:45:16;5.45;;;2.60;;
49392;SDS011;35268;42.642;23.308;2023-04-24T11:47:52;8.20;;;2.95;;
49392;SDS011;35268;42.642;23.308;2023-04-24T11:50:22;7.93;;;3.20;;
49392;SDS011;35268;42.642;23.308;2023-04-24T11:52:50;15.63;;;4.05;;
49392;SDS011;35268;42.642;23.308;2023-04-24T11:57:45;5.50;;;3.65;;
49392;SDS011;35268;42.642;23.308;2023-04-24T12:00:15;5.38;;;2.90;;
49392;SDS011;35268;42.642;23.308;2023-04-24T12:02:41;9.50;;;4.57;;
49392;SDS011;35268;42.642;23.308;2023-04-24T12:05:07;11.13;;;4.85;;
49392;SDS011;35268;42.642;23.308;2023-04-24T12:07:39;8.15;;;4.53;;
49392;SDS011;35268;42.642;23.308;2023-04-24T12:10:07;13.52;;;4.00;;
49392;SDS011;35268;42.642;23.308;2023-04-24T12:12:34;9.23;;;4.05;;
49392;SDS011;35268;42.642;23.308;2023-04-24T12:15:00;3.63;;;2.70;;
49392;SDS011;35268;42.642;23.308;2023-04-24T12:17:28;4.15;;;2.35;;
49392;SDS011;35268;42.642;23.308;2023-04-24T12:19:59;4.22;;;2.15;;
49392;SDS011;35268;42.642;23.308;2023-04-24T12:22:27;4.18;;;2.17;;
49392;SDS011;35268;42.642;23.308;2023-04-24T12:24:57;3.63;;;1.90;;
49392;SDS011;35268;42.642;23.308;2023-04-24T12:27:33;5.05;;;1.88;;
49392;SDS011;35268;42.642;23.308;2023-04-24T12:29:59;3.72;;;1.90;;
49392;SDS011;35268;42.642;23.308;2023-04-24T12:32:26;4.57;;;2.30;;
49392;SDS011;35268;42.642;23.308;2023-04-24T12:34:52;4.13;;;2.38;;
49392;SDS011;35268;42.642;23.308;2023-04-24T12:37:18;4.43;;;2.58;;
49392;SDS011;35268;42.642;23.308;2023-04-24T12:39:46;6.60;;;2.80;;
49392;SDS011;35268;42.642;23.308;2023-04-24T12:42:27;5.25;;;2.88;;
49392;SDS011;35268;42.642;23.308;2023-04-24T12:45:01;5.72;;;2.55;;
49392;SDS011;35268;42.642;23.308;2023-04-24T12:47:29;8.55;;;3.08;;
49392;SDS011;35268;42.642;23.308;2023-04-24T12:49:56;11.02;;;3.00;;
49392;SDS011;35268;42.642;23.308;2023-04-24T12:52:22;6.68;;;2.70;;
49392;SDS011;35268;42.642;23.308;2023-04-24T12:54:54;8.30;;;3.25;;
49392;SDS011;35268;42.642;23.308;2023-04-24T12:57:22;5.80;;;2.55;;
49392;SDS011;35268;42.642;23.308;2023-04-24T12:59:48;7.07;;;2.50;;
49392;SDS011;35268;42.642;23.308;2023-04-24T13:02:13;8.07;;;2.50;;
49392;SDS011;35268;42.642;23.308;2023-04-24T13:04:42;7.75;;;2.50;;
49392;SDS011;35268;42.642;23.308;2023-04-24T13:07:12;5.70;;;2.28;;
49392;SDS011;35268;42.642;23.308;2023-04-24T13:09:38;3.80;;;2.20;;
49392;SDS011;35268;42.642;23.308;2023-04-24T13:12:04;7.53;;;2.83;;
49392;SDS011;35268;42.642;23.308;2023-04-24T13:14:33;6.00;;;2.40;;
49392;SDS011;35268;42.642;23.308;2023-04-24T13:17:01;6.25;;;3.25;;
49392;SDS011;35268;42.642;23.308;2023-04-24T13:19:27;9.55;;;2.85;;
49392;SDS011;35268;42.642;23.308;2023-04-24T13:21:54;7.75;;;2.83;;
49392;SDS011;35268;42.642;23.308;2023-04-24T13:24:21;5.45;;;2.38;;
49392;SDS011;35268;42.642;23.308;2023-04-24T13:26:50;3.45;;;2.13;;
49392;SDS011;35268;42.642;23.308;2023-04-24T13:29:16;3.85;;;2.33;;
49392;SDS011;35268;42.642;23.308;2023-04-24T13:31:41;3.97;;;2.53;;
49392;SDS011;35268;42.642;23.308;2023-04-24T13:34:07;8.48;;;2.55;;
49392;SDS011;35268;42.642;23.308;2023-04-24T13:36:32;4.00;;;2.30;;
49392;SDS011;35268;42.642;23.308;2023-04-24T13:38:58;6.50;;;2.53;;
49392;SDS011;35268;42.642;23.308;2023-04-24T13:41:24;6.95;;;2.83;;
49392;SDS011;35268;42.642;23.308;2023-04-24T13:43:49;6.50;;;2.63;;
49392;SDS011;35268;42.642;23.308;2023-04-24T13:46:15;6.38;;;2.53;;
49392;SDS011;35268;42.642;23.308;2023-04-24T13:48:41;6.80;;;2.22;;
49392;SDS011;35268;42.642;23.308;2023-04-24T13:51:06;6.80;;;2.53;;
49392;SDS011;35268;42.642;23.308;2023-04-24T13:53:31;7.53;;;2.72;;
49392;SDS011;35268;42.642;23.308;2023-04-24T13:56:00;5.20;;;2.50;;
49392;SDS011;35268;42.642;23.308;2023-04-24T13:58:27;6.18;;;2.53;;
49392;SDS011;35268;42.642;23.308;2023-04-24T14:00:53;6.60;;;2.67;;
49392;SDS011;35268;42.642;23.308;2023-04-24T14:03:18;6.90;;;2.70;;
49392;SDS011;35268;42.642;23.308;2023-04-24T14:05:44;10.18;;;2.80;;
49392;SDS011;35268;42.642;23.308;2023-04-24T14:08:09;8.02;;;2.40;;
49392;SDS011;35268;42.642;23.308;2023-04-24T14:10:35;5.22;;;2.15;;
49392;SDS011;35268;42.642;23.308;2023-04-24T14:13:00;3.90;;;1.90;;
49392;SDS011;35268;42.642;23.308;2023-04-24T14:15:26;2.90;;;1.88;;
49392;SDS011;35268;42.642;23.308;2023-04-24T14:17:52;8.27;;;2.83;;
49392;SDS011;35268;42.642;23.308;2023-04-24T14:20:17;6.72;;;2.35;;
49392;SDS011;35268;42.642;23.308;2023-04-24T14:22:44;7.43;;;2.90;;
49392;SDS011;35268;42.642;23.308;2023-04-24T14:25:10;4.93;;;2.35;;
49392;SDS011;35268;42.642;23.308;2023-04-24T14:27:36;10.32;;;2.50;;
49392;SDS011;35268;42.642;23.308;2023-04-24T14:30:01;5.55;;;2.50;;